Time;durP1;ratioP1;P1;durP2;ratioP2;P2;SDS_P1;SDS_P2;PMS_P1;PMS_P2;Temp;Humidity;BMP_temperature;BMP_pressure;BME280_temperature;BME280_humidity;BME280_pressure;Samples;Min_cycle;Max_cycle;Signal;HPM_P1;HPM_P2
2023/12/08 00:00:46;;;;;;;12.32;8.00;;;0.40;29.00;;;;;;6275211;22;20373;-84
2023/12/08 00:03:34;;;;;;;16.77;8.25;;;0.50;10.00;;;;;;6277592;22;20146;-84
2023/12/08 00:06:21;;;;;;;14.90;9.18;;;0.60;1.00;;;;;;6274364;22;20027;-84
2023/12/08 00:09:12;;;;;;;14.90;9.63;;;0.70;1.00;;;;;;6276643;22;20020;-85
2023/12/08 00:11:59;;;;;;;13.77;8.90;;;0.70;1.00;;;;;;6273600;22;20031;-85
2023/12/08 00:14:46;;;;;;;14.93;9.07;;;0.70;1.00;;;;;;6276637;22;20107;-84
2023/12/08 00:17:36;;;;;;;15.07;9.75;;;0.70;1.00;;;;;;6272907;22;20103;-85
2023/12/08 00:20:25;;;;;;;16.55;10.18;;;0.60;1.00;;;;;;6275765;22;20030;-84
2023/12/08 00:23:13;;;;;;;19.95;11.40;;;0.60;1.00;;;;;;6271186;22;20045;-84
2023/12/08 00:26:02;;;;;;;17.27;10.52;;;0.50;17.10;;;;;;6272481;22;20031;-84
2023/12/08 00:28:49;;;;;;;17.27;9.95;;;0.40;71.80;;;;;;6273491;22;20032;-84
2023/12/08 00:31:36;;;;;;;16.02;10.60;;;0.30;94.10;;;;;;6278067;22;20422;-85
2023/12/08 00:34:24;;;;;;;16.15;10.88;;;0.40;99.90;;;;;;6272174;22;20023;-85
2023/12/08 00:37:12;;;;;;;21.98;11.32;;;0.30;99.90;;;;;;6274294;22;20127;-81
2023/12/08 00:40:02;;;;;;;17.77;11.40;;;0.30;99.90;;;;;;6271586;22;20020;-84
2023/12/08 00:42:51;;;;;;;18.73;11.80;;;0.30;99.90;;;;;;6272737;22;20019;-85
2023/12/08 00:45:38;;;;;;;17.40;10.70;;;0.40;99.90;;;;;;6276099;22;20059;-85
2023/12/08 00:48:26;;;;;;;17.65;10.73;;;0.30;99.90;;;;;;6275192;22;20433;-84
2023/12/08 00:51:15;;;;;;;17.55;9.77;;;0.30;99.90;;;;;;6276444;22;20101;-85
2023/12/08 00:54:05;;;;;;;19.70;10.02;;;0.40;99.90;;;;;;6273636;22;20038;-85
2023/12/08 00:56:52;;;;;;;14.02;8.90;;;0.40;99.90;;;;;;6273038;22;20397;-85
2023/12/08 00:59:40;;;;;;;14.60;8.43;;;0.40;99.90;;;;;;6272053;22;20461;-86
2023/12/08 01:02:27;;;;;;;14.48;9.40;;;0.50;99.90;;;;;;6274835;22;20417;-84
2023/12/08 01:05:16;;;;;;;15.10;9.13;;;0.50;99.90;;;;;;6275541;22;20026;-84
2023/12/08 01:08:04;;;;;;;15.18;9.25;;;0.50;99.90;;;;;;6274569;22;20023;-84
2023/12/08 01:10:53;;;;;;;16.70;9.55;;;0.60;99.90;;;;;;6273475;22;20027;-85
2023/12/08 01:13:41;;;;;;;16.83;8.75;;;0.60;99.90;;;;;;6273487;22;20055;-84
2023/12/08 01:16:31;;;;;;;23.42;11.88;;;0.60;99.90;;;;;;6272489;22;20432;-84
2023/12/08 01:19:18;;;;;;;17.35;10.07;;;0.50;99.90;;;;;;6275856;22;20031;-82
2023/12/08 01:22:07;;;;;;;14.88;9.85;;;0.50;99.90;;;;;;6276005;22;20095;-78
2023/12/08 01:24:57;;;;;;;17.88;10.60;;;0.60;99.90;;;;;;6274712;22;20042;-84
2023/12/08 01:27:44;;;;;;;16.17;10.68;;;0.60;99.90;;;;;;6274263;22;20023;-84
2023/12/08 01:30:34;;;;;;;18.33;10.15;;;0.70;99.90;;;;;;6277779;22;20299;-83
2023/12/08 01:33:21;;;;;;;17.35;10.90;;;0.70;99.90;;;;;;6275613;22;20027;-84
2023/12/08 01:36:09;;;;;;;22.92;11.82;;;0.70;99.90;;;;;;6277473;22;20046;-84
2023/12/08 01:39:17;;;;;;;20.27;12.55;;;0.70;99.90;;;;;;6274423;22;20325;-84
2023/12/08 01:42:04;;;;;;;17.20;11.23;;;0.70;99.90;;;;;;6275556;22;20027;-85
2023/12/08 01:44:51;;;;;;;19.40;11.63;;;0.70;99.90;;;;;;6276600;22;20023;-83
2023/12/08 01:47:40;;;;;;;19.92;11.63;;;0.60;99.90;;;;;;6274642;22;20095;-85
2023/12/08 01:50:27;;;;;;;21.92;12.15;;;0.60;99.90;;;;;;6276528;22;20024;-85
2023/12/08 01:53:15;;;;;;;17.33;11.48;;;0.60;99.90;;;;;;6274328;22;20046;-85
2023/12/08 01:56:05;;;;;;;19.85;10.85;;;0.60;99.90;;;;;;6272356;22;20028;-85
2023/12/08 01:58:53;;;;;;;18.58;11.20;;;0.60;99.90;;;;;;6276975;22;20023;-85
2023/12/08 02:01:41;;;;;;;17.33;11.27;;;0.60;99.90;;;;;;6274367;22;20031;-85
2023/12/08 02:04:28;;;;;;;17.77;10.55;;;0.60;99.90;;;;;;6277315;22;20103;-85
2023/12/08 02:07:18;;;;;;;20.45;12.32;;;0.60;99.90;;;;;;6274146;22;20027;-85
2023/12/08 02:10:06;;;;;;;18.02;11.73;;;0.70;99.90;;;;;;6275354;22;20367;-80
2023/12/08 02:12:55;;;;;;;19.77;11.88;;;0.70;99.90;;;;;;6276234;22;20028;-86
2023/12/08 02:15:48;;;;;;;18.52;11.07;;;0.60;99.90;;;;;;6275274;22;20028;-85
2023/12/08 02:18:38;;;;;;;23.33;12.65;;;0.60;99.90;;;;;;6276285;22;20041;-79
2023/12/08 02:21:26;;;;;;;16.63;11.30;;;0.60;1.00;;;;;;6278609;22;20050;-80
2023/12/08 02:24:19;;;;;;;19.00;10.88;;;0.60;99.90;;;;;;6278424;22;20641;-85
2023/12/08 02:27:08;;;;;;;18.83;11.55;;;0.60;99.90;;;;;;6275962;22;20035;-85
2023/12/08 02:29:58;;;;;;;19.50;11.65;;;0.60;99.90;;;;;;6274069;22;20024;-85
2023/12/08 02:32:56;;;;;;;19.15;10.70;;;0.60;99.90;;;;;;6273217;22;20475;-85
2023/12/08 02:35:45;;;;;;;20.85;11.50;;;0.60;99.90;;;;;;6274877;22;20026;-85
2023/12/08 02:38:33;;;;;;;19.92;11.55;;;0.60;99.90;;;;;;6276063;22;20023;-84
2023/12/08 02:41:21;;;;;;;16.70;10.63;;;0.60;99.90;;;;;;6275460;22;20046;-85
2023/12/08 02:44:08;;;;;;;18.10;11.02;;;0.60;99.90;;;;;;6273793;22;20041;-85
2023/12/08 02:46:55;;;;;;;16.95;11.52;;;0.50;99.90;;;;;;6272268;22;20027;-85
2023/12/08 02:49:45;;;;;;;21.05;12.85;;;0.60;99.90;;;;;;6272880;22;20034;-85
2023/12/08 02:52:32;;;;;;;17.10;11.45;;;0.60;99.90;;;;;;6275339;22;20099;-86
2023/12/08 02:55:19;;;;;;;18.55;11.48;;;0.60;99.90;;;;;;6277211;22;20636;-86
2023/12/08 02:58:09;;;;;;;21.77;12.20;;;0.60;99.90;;;;;;6286041;22;20027;-78
2023/12/08 03:00:59;;;;;;;17.63;11.65;;;0.60;99.90;;;;;;6282776;22;20020;-86
2023/12/08 03:03:48;;;;;;;17.05;11.15;;;0.60;99.90;;;;;;6275615;22;20020;-86
2023/12/08 03:06:36;;;;;;;20.20;10.80;;;0.60;99.90;;;;;;6272714;22;20023;-82
2023/12/08 03:09:23;;;;;;;17.30;11.15;;;0.50;99.90;;;;;;6276120;22;20030;-84
2023/12/08 03:12:13;;;;;;;17.55;11.90;;;0.60;99.90;;;;;;6275297;22;20414;-86
2023/12/08 03:15:00;;;;;;;21.83;11.95;;;0.50;99.90;;;;;;6271899;22;20038;-84
2023/12/08 03:17:48;;;;;;;24.13;12.13;;;0.40;99.90;;;;;;6275882;22;20416;-85
2023/12/08 03:20:35;;;;;;;19.42;11.65;;;0.40;99.90;;;;;;6271626;22;20322;-85
2023/12/08 03:23:22;;;;;;;20.30;11.70;;;0.30;1.00;;;;;;6273578;22;20426;-85
2023/12/08 03:26:14;;;;;;;16.27;11.32;;;0.20;99.90;;;;;;6272101;22;20030;-86
2023/12/08 03:29:15;;;;;;;21.33;11.90;;;0.20;1.00;;;;;;6275262;22;20024;-85
2023/12/08 03:32:04;;;;;;;18.70;11.68;;;0.30;67.10;;;;;;6275261;22;20094;-85
2023/12/08 03:34:53;;;;;;;14.95;10.48;;;0.30;1.00;;;;;;6272453;22;20311;-84
2023/12/08 03:37:41;;;;;;;17.13;11.18;;;0.30;1.00;;;;;;6275385;22;20043;-85
2023/12/08 03:40:29;;;;;;;18.48;10.98;;;0.30;99.90;;;;;;6274080;22;20028;-86
2023/12/08 03:43:18;;;;;;;16.23;10.32;;;0.30;99.90;;;;;;6273924;22;20705;-86
2023/12/08 03:46:08;;;;;;;16.35;10.80;;;0.30;1.00;;;;;;6274097;22;20024;-81
2023/12/08 03:48:55;;;;;;;19.98;11.13;;;0.40;99.90;;;;;;6275133;22;20334;-85
2023/12/08 03:51:43;;;;;;;13.73;9.82;;;0.40;1.00;;;;;;6273682;22;20027;-85
2023/12/08 03:54:30;;;;;;;15.50;10.45;;;0.50;99.90;;;;;;6274567;22;20030;-85
2023/12/08 03:57:18;;;;;;;15.52;9.77;;;0.60;1.00;;;;;;6278602;22;20028;-85
2023/12/08 04:00:06;;;;;;;15.00;9.43;;;0.70;1.00;;;;;;6274020;22;20023;-85
2023/12/08 04:02:53;;;;;;;15.70;10.32;;;0.70;1.00;;;;;;6272268;22;20032;-85
2023/12/08 04:05:40;;;;;;;16.08;10.55;;;0.80;99.90;;;;;;6272884;22;20024;-85
2023/12/08 04:08:28;;;;;;;12.93;9.25;;;0.90;1.00;;;;;;6273496;22;20032;-84
2023/12/08 04:11:15;;;;;;;12.55;8.32;;;0.90;99.90;;;;;;6275250;22;20259;-85
2023/12/08 04:14:02;;;;;;;13.70;8.43;;;1.30;99.90;;;;;;6275170;22;20578;-84
2023/12/08 04:16:53;;;;;;;15.45;8.60;;;1.60;99.90;;;;;;6275090;22;20027;-85
2023/12/08 04:19:40;;;;;;;14.38;8.85;;;1.70;99.90;;;;;;6271388;22;20028;-85
2023/12/08 04:22:31;;;;;;;11.13;8.02;;;1.70;99.90;;;;;;6271546;22;20307;-85
2023/12/08 04:25:18;;;;;;;14.20;8.80;;;1.70;99.90;;;;;;6272958;22;20082;-85
2023/12/08 04:28:05;;;;;;;14.80;9.13;;;1.70;99.90;;;;;;6276878;22;20024;-81
2023/12/08 04:30:55;;;;;;;15.45;9.00;;;1.70;99.90;;;;;;6275353;22;20031;-85
2023/12/08 04:33:42;;;;;;;13.43;8.52;;;1.70;99.90;;;;;;6275564;22;20032;-84
2023/12/08 04:36:30;;;;;;;15.02;8.32;;;1.70;99.90;;;;;;6269630;22;20024;-80
2023/12/08 04:39:18;;;;;;;15.25;9.75;;;1.80;99.90;;;;;;6277153;22;20031;-84
2023/12/08 04:42:05;;;;;;;16.42;9.35;;;1.70;99.90;;;;;;6276450;22;20317;-85
2023/12/08 04:44:52;;;;;;;13.93;9.32;;;1.70;1.00;;;;;;6275261;22;20028;-86
2023/12/08 04:47:40;;;;;;;13.65;9.10;;;1.70;1.00;;;;;;6276435;22;20019;-85
2023/12/08 04:50:30;;;;;;;16.65;9.45;;;1.70;99.90;;;;;;6272481;22;20030;-83
2023/12/08 04:53:17;;;;;;;17.10;10.48;;;1.60;99.90;;;;;;6273067;22;20028;-85
2023/12/08 04:56:05;;;;;;;15.00;9.95;;;1.60;99.90;;;;;;6271435;22;20031;-85
2023/12/08 04:58:53;;;;;;;16.17;10.73;;;1.60;99.90;;;;;;6271918;22;20035;-84
2023/12/08 05:01:40;;;;;;;18.88;11.70;;;1.70;70.80;;;;;;6276468;22;20026;-85
2023/12/08 05:04:28;;;;;;;20.00;11.85;;;1.80;1.00;;;;;;6276714;22;20024;-84
2023/12/08 05:07:17;;;;;;;18.75;11.93;;;1.80;1.00;;;;;;6273196;22;20023;-85
2023/12/08 05:10:08;;;;;;;19.92;12.20;;;1.80;99.90;;;;;;6276006;22;20024;-85
2023/12/08 05:12:55;;;;;;;18.50;12.88;;;1.80;99.90;;;;;;6277698;22;20023;-81
2023/12/08 05:15:45;;;;;;;19.33;11.98;;;1.80;99.90;;;;;;6274452;22;20023;-79
2023/12/08 05:18:33;;;;;;;19.45;12.30;;;1.80;99.90;;;;;;6278684;22;20032;-85
2023/12/08 05:21:20;;;;;;;21.27;12.60;;;1.80;99.90;;;;;;6274314;22;20408;-84
2023/12/08 05:24:07;;;;;;;17.98;11.75;;;1.80;99.90;;;;;;6276381;22;20050;-82
2023/12/08 05:26:55;;;;;;;19.85;12.00;;;1.90;66.00;;;;;;6277150;22;20027;-84
2023/12/08 05:29:45;;;;;;;18.80;10.77;;;1.90;48.10;;;;;;6273890;22;20035;-85
2023/12/08 05:32:35;;;;;;;15.18;10.13;;;1.90;99.90;;;;;;6273546;22;20038;-84
2023/12/08 05:35:25;;;;;;;15.48;9.57;;;2.00;1.00;;;;;;6276232;22;20034;-85
2023/12/08 05:38:12;;;;;;;13.07;8.48;;;1.90;99.90;;;;;;6274735;22;20038;-85
2023/12/08 05:40:59;;;;;;;13.00;8.85;;;2.00;1.00;;;;;;6277461;22;20020;-84
2023/12/08 05:43:50;;;;;;;12.68;8.02;;;2.00;99.90;;;;;;6276322;22;20024;-85
2023/12/08 05:46:37;;;;;;;13.65;8.25;;;2.00;99.90;;;;;;6276667;22;20031;-85
2023/12/08 05:49:24;;;;;;;17.40;8.57;;;2.00;99.90;;;;;;6272845;22;20349;-84
2023/12/08 05:52:12;;;;;;;12.80;7.40;;;1.90;2.30;;;;;;6274851;22;20052;-85
2023/12/08 05:54:59;;;;;;;11.55;7.70;;;1.80;99.90;;;;;;6274657;22;20057;-85
2023/12/08 05:57:46;;;;;;;13.25;8.68;;;1.80;99.90;;;;;;6277194;22;20146;-80
2023/12/08 06:00:33;;;;;;;14.32;8.10;;;1.80;99.90;;;;;;6274415;22;20594;-85
2023/12/08 06:03:21;;;;;;;17.33;9.07;;;1.60;1.00;;;;;;6277222;22;20024;-84
2023/12/08 06:06:10;;;;;;;11.18;7.47;;;1.70;99.90;;;;;;6277178;22;20462;-85
2023/12/08 06:08:58;;;;;;;17.17;8.23;;;1.60;1.00;;;;;;6276957;22;20020;-85
2023/12/08 06:11:45;;;;;;;19.67;9.35;;;1.60;1.00;;;;;;6272926;22;20037;-85
2023/12/08 06:14:33;;;;;;;12.32;8.50;;;1.60;18.30;;;;;;6276807;22;20027;-84
2023/12/08 06:17:22;;;;;;;15.45;9.68;;;1.60;62.80;;;;;;6275665;22;20028;-85
2023/12/08 06:20:13;;;;;;;13.73;9.15;;;1.60;84.80;;;;;;6274553;22;20023;-85
2023/12/08 06:23:03;;;;;;;18.85;10.63;;;1.60;91.90;;;;;;6274273;22;20030;-85
2023/12/08 06:25:50;;;;;;;17.98;11.25;;;1.60;96.60;;;;;;6276805;22;20024;-83
2023/12/08 06:28:37;;;;;;;17.75;11.32;;;1.50;99.90;;;;;;6274566;22;20030;-85
2023/12/08 06:31:30;;;;;;;16.23;9.60;;;1.50;99.90;;;;;;6274137;22;20028;-84
2023/12/08 06:34:17;;;;;;;15.65;7.22;;;1.50;99.90;;;;;;6274832;22;20102;-81
2023/12/08 06:37:04;;;;;;;14.77;8.38;;;1.60;99.90;;;;;;6279664;22;20099;-85
2023/12/08 06:39:52;;;;;;;14.35;9.13;;;1.60;99.90;;;;;;6274751;22;20027;-83
2023/12/08 06:42:39;;;;;;;17.10;9.05;;;1.60;99.90;;;;;;6276244;22;20334;-83
2023/12/08 06:45:26;;;;;;;12.82;8.25;;;1.70;99.90;;;;;;6276579;22;20101;-81
2023/12/08 06:48:13;;;;;;;14.93;8.80;;;1.60;99.90;;;;;;6279484;22;20485;-84
2023/12/08 06:51:03;;;;;;;18.05;9.98;;;1.60;99.90;;;;;;6278964;22;20023;-83
2023/12/08 06:53:51;;;;;;;16.00;10.15;;;1.60;99.90;;;;;;6274465;22;20356;-83
2023/12/08 06:56:43;;;;;;;14.07;9.07;;;1.60;99.90;;;;;;6277556;22;20109;-84
2023/12/08 06:59:31;;;;;;;15.88;10.27;;;1.80;99.90;;;;;;6280953;22;20103;-85
2023/12/08 07:02:18;;;;;;;16.23;8.82;;;1.80;99.90;;;;;;6281217;22;20024;-83
2023/12/08 07:05:06;;;;;;;14.65;8.90;;;2.00;99.90;;;;;;6281728;22;20086;-84
2023/12/08 07:07:56;;;;;;;14.55;9.25;;;2.00;99.90;;;;;;6275189;22;20474;-84
2023/12/08 07:10:43;;;;;;;18.23;10.27;;;2.10;99.90;;;;;;6274354;22;20043;-84
2023/12/08 07:13:30;;;;;;;20.13;10.80;;;2.20;99.90;;;;;;6275572;22;20032;-85
2023/12/08 07:16:18;;;;;;;18.33;10.32;;;2.20;99.90;;;;;;6275830;22;20047;-84
2023/12/08 07:19:07;;;;;;;20.52;10.23;;;2.30;99.90;;;;;;6272175;22;20038;-84
2023/12/08 07:21:54;;;;;;;16.83;10.05;;;2.30;99.90;;;;;;6273948;22;20031;-84
2023/12/08 07:24:42;;;;;;;18.95;11.10;;;2.30;99.90;;;;;;6276185;22;20100;-84
2023/12/08 07:27:32;;;;;;;20.23;13.13;;;2.30;99.90;;;;;;6277475;22;20020;-82
2023/12/08 07:30:19;;;;;;;17.60;11.07;;;2.40;99.90;;;;;;6275146;22;20055;-79
2023/12/08 07:33:08;;;;;;;22.80;11.45;;;2.40;99.90;;;;;;6275752;22;20033;-81
2023/12/08 07:36:00;;;;;;;21.20;11.27;;;2.40;99.90;;;;;;6276101;22;20027;-82
2023/12/08 07:38:48;;;;;;;19.20;11.25;;;2.40;99.90;;;;;;6273750;22;20024;-84
2023/12/08 07:41:38;;;;;;;21.17;10.73;;;2.50;99.90;;;;;;6274035;22;20095;-82
2023/12/08 07:44:28;;;;;;;21.58;12.00;;;2.50;99.90;;;;;;6273857;22;20019;-82
2023/12/08 07:47:15;;;;;;;21.27;11.63;;;2.60;99.90;;;;;;6272764;22;20023;-84
2023/12/08 07:50:03;;;;;;;20.35;12.00;;;2.60;99.90;;;;;;6275905;22;20020;-82
2023/12/08 07:52:51;;;;;;;23.80;12.93;;;2.70;99.90;;;;;;6274674;22;20031;-83
2023/12/08 07:55:39;;;;;;;25.77;12.25;;;2.60;99.90;;;;;;6275624;22;20023;-84
2023/12/08 07:58:26;;;;;;;21.75;12.50;;;2.70;99.90;;;;;;6272395;22;20024;-84
2023/12/08 08:01:14;;;;;;;22.52;12.80;;;2.70;99.90;;;;;;6273787;22;20411;-82
2023/12/08 08:04:04;;;;;;;25.92;14.00;;;2.80;99.90;;;;;;6273622;22;20146;-83
2023/12/08 08:06:54;;;;;;;21.13;12.30;;;2.90;99.90;;;;;;6272089;22;20049;-81
2023/12/08 08:09:41;;;;;;;25.33;13.15;;;3.00;99.90;;;;;;6277115;22;20023;-82
2023/12/08 08:12:32;;;;;;;25.55;13.50;;;3.00;99.90;;;;;;6276992;22;20023;-82
2023/12/08 08:15:19;;;;;;;23.40;12.48;;;3.10;99.90;;;;;;6275281;22;20455;-83
2023/12/08 08:18:07;;;;;;;25.75;14.35;;;3.20;99.90;;;;;;6272817;22;20020;-82
2023/12/08 08:20:57;;;;;;;26.63;15.27;;;3.20;99.90;;;;;;6272855;22;20035;-83
2023/12/08 08:23:47;;;;;;;28.17;13.98;;;3.30;99.90;;;;;;6273895;22;20035;-83
2023/12/08 08:26:44;;;;;;;21.00;13.48;;;3.30;99.90;;;;;;6276777;22;20027;-83
2023/12/08 08:29:31;;;;;;;23.45;12.82;;;3.40;99.90;;;;;;6273354;22;20101;-83
2023/12/08 08:32:19;;;;;;;25.48;14.63;;;3.40;99.90;;;;;;6274610;22;20102;-84
2023/12/08 08:35:07;;;;;;;29.55;14.40;;;3.40;99.90;;;;;;6276202;22;20024;-83
2023/12/08 08:37:56;;;;;;;21.35;13.05;;;3.50;99.90;;;;;;6273200;22;20395;-83
2023/12/08 08:40:44;;;;;;;20.90;11.25;;;3.60;99.90;;;;;;6276273;22;20318;-82
2023/12/08 08:43:34;;;;;;;19.80;11.75;;;3.60;99.90;;;;;;6274905;22;20024;-84
2023/12/08 08:46:21;;;;;;;19.60;11.43;;;3.70;99.90;;;;;;6276896;22;20031;-81
2023/12/08 08:49:09;;;;;;;19.70;10.95;;;3.70;99.90;;;;;;6277304;22;20409;-83
2023/12/08 08:52:02;;;;;;;27.38;11.93;;;3.80;99.90;;;;;;6272117;22;20038;-83
2023/12/08 08:54:49;;;;;;;15.88;10.05;;;3.90;99.90;;;;;;6274415;22;20051;-83
2023/12/08 08:57:37;;;;;;;16.90;11.50;;;3.90;99.90;;;;;;6277241;22;20027;-84
2023/12/08 09:00:27;;;;;;;15.70;10.63;;;3.90;99.90;;;;;;6275714;22;20424;-84
2023/12/08 09:03:14;;;;;;;14.52;10.05;;;3.90;99.90;;;;;;6275760;22;20416;-85
2023/12/08 09:06:04;;;;;;;15.73;10.88;;;4.00;99.90;;;;;;6277471;22;20016;-85
2023/12/08 09:08:54;;;;;;;17.98;9.95;;;4.00;99.90;;;;;;6277677;22;20019;-84
2023/12/08 09:11:44;;;;;;;14.25;9.23;;;4.00;99.90;;;;;;6277772;22;20019;-84
2023/12/08 09:14:33;;;;;;;18.20;9.95;;;4.00;99.90;;;;;;6277667;22;20368;-85
2023/12/08 09:17:20;;;;;;;18.23;11.65;;;4.00;99.90;;;;;;6280410;22;20130;-84
2023/12/08 09:20:13;;;;;;;14.95;10.00;;;4.10;99.90;;;;;;6282264;22;20034;-84
2023/12/08 09:23:05;;;;;;;17.48;10.20;;;4.10;99.90;;;;;;6277382;22;20024;-86
2023/12/08 09:25:53;;;;;;;16.58;10.50;;;4.10;99.90;;;;;;6276031;22;20071;-85
2023/12/08 09:28:41;;;;;;;14.77;9.52;;;4.10;99.90;;;;;;6276502;22;20106;-85
2023/12/08 09:31:28;;;;;;;17.48;10.60;;;4.10;99.90;;;;;;6276462;22;20253;-84
2023/12/08 09:34:16;;;;;;;17.98;10.18;;;4.20;99.90;;;;;;6275577;22;20027;-80
2023/12/08 09:37:04;;;;;;;14.93;9.93;;;4.20;99.90;;;;;;6277413;22;20023;-86
2023/12/08 09:40:17;;;;;;;15.02;9.95;;;4.30;99.90;;;;;;6275494;22;20024;-84
2023/12/08 09:43:13;;;;;;;16.95;9.88;;;4.30;99.90;;;;;;6275117;22;20652;-84
2023/12/08 09:46:02;;;;;;;18.95;10.57;;;4.30;99.90;;;;;;6273798;22;20128;-85
2023/12/08 09:48:55;;;;;;;15.27;9.70;;;4.30;99.90;;;;;;6277620;22;20142;-82
2023/12/08 09:51:44;;;;;;;16.65;10.05;;;4.30;99.90;;;;;;6279445;22;20170;-84
2023/12/08 09:54:32;;;;;;;13.82;9.30;;;4.30;99.90;;;;;;6279307;22;20071;-85
2023/12/08 09:57:22;;;;;;;15.95;10.25;;;4.40;99.90;;;;;;6275352;22;20085;-83
2023/12/08 10:00:16;;;;;;;14.80;9.52;;;4.40;99.90;;;;;;6273981;22;20024;-78
2023/12/08 10:03:07;;;;;;;14.05;9.43;;;4.40;99.90;;;;;;6276464;22;20088;-83
2023/12/08 10:05:55;;;;;;;14.07;9.05;;;4.50;99.90;;;;;;6278026;22;20110;-84
2023/12/08 10:08:43;;;;;;;15.80;9.18;;;4.50;99.90;;;;;;6276918;22;20074;-84
2023/12/08 10:11:31;;;;;;;11.73;8.57;;;4.50;99.90;;;;;;6275481;22;20086;-84
2023/12/08 10:14:20;;;;;;;13.50;8.98;;;4.50;99.90;;;;;;6275097;22;20023;-84
2023/12/08 10:17:09;;;;;;;17.73;8.57;;;4.50;99.90;;;;;;6274902;22;20398;-85
2023/12/08 10:20:12;;;;;;;14.82;8.20;;;4.60;99.90;;;;;;6273994;22;20359;-84
2023/12/08 10:23:00;;;;;;;15.57;8.63;;;4.60;99.90;;;;;;6275401;22;20046;-84
2023/12/08 10:25:52;;;;;;;13.05;8.02;;;4.60;99.90;;;;;;6276375;22;20409;-84
2023/12/08 10:28:43;;;;;;;13.10;8.10;;;4.70;99.90;;;;;;6273674;22;20023;-83
2023/12/08 10:31:30;;;;;;;13.60;7.68;;;4.70;99.90;;;;;;6276475;22;20019;-85
2023/12/08 10:34:18;;;;;;;11.82;7.13;;;4.80;99.90;;;;;;6274764;22;20380;-84
2023/12/08 10:37:06;;;;;;;12.15;7.15;;;4.80;99.90;;;;;;6277411;22;20038;-83
2023/12/08 10:39:56;;;;;;;11.93;7.80;;;4.80;99.90;;;;;;6274483;22;20114;-85
2023/12/08 10:42:48;;;;;;;9.25;6.25;;;4.90;99.90;;;;;;6276861;22;20051;-80
2023/12/08 10:45:36;;;;;;;7.72;6.05;;;4.90;99.90;;;;;;6276647;22;20027;-83
2023/12/08 10:48:24;;;;;;;8.88;6.45;;;5.00;99.90;;;;;;6276712;22;20030;-84
2023/12/08 10:51:14;;;;;;;10.02;6.57;;;5.10;99.90;;;;;;6276645;22;20024;-84
2023/12/08 10:54:03;;;;;;;7.35;5.60;;;5.10;99.90;;;;;;6272969;22;20034;-84
2023/12/08 10:56:50;;;;;;;8.57;5.07;;;5.20;99.80;;;;;;6274715;22;20107;-85
2023/12/08 10:59:43;;;;;;;7.53;5.13;;;5.30;99.90;;;;;;6273866;22;20047;-84
2023/12/08 11:02:34;;;;;;;9.27;5.32;;;5.40;99.90;;;;;;6274934;22;20020;-85
2023/12/08 11:05:37;;;;;;;8.32;4.65;;;5.50;99.90;;;;;;6274624;22;20030;-84
2023/12/08 11:08:27;;;;;;;6.80;4.60;;;5.50;99.90;;;;;;6274719;22;20027;-84
2023/12/08 11:11:16;;;;;;;7.63;4.72;;;5.50;99.90;;;;;;6274207;22;20413;-84
2023/12/08 11:14:18;;;;;;;6.70;4.88;;;5.50;99.90;;;;;;6273032;22;20028;-84
2023/12/08 11:17:36;;;;;;;7.50;5.10;;;5.60;99.90;;;;;;6274556;22;20031;-82
2023/12/08 11:20:24;;;;;;;5.90;4.32;;;5.60;99.90;;;;;;6273882;22;20370;-84
2023/12/08 11:23:12;;;;;;;6.40;4.85;;;5.70;99.90;;;;;;6273358;22;20422;-83
2023/12/08 11:26:18;;;;;;;7.68;4.82;;;5.60;99.90;;;;;;6271733;22;20031;-84
2023/12/08 11:29:44;;;;;;;7.03;4.00;;;5.60;99.90;;;;;;6275858;22;20030;-84
2023/12/08 11:33:11;;;;;;;6.32;4.55;;;5.50;99.90;;;;;;6274784;22;20028;-83
2023/12/08 11:36:09;;;;;;;7.28;4.93;;;5.50;99.90;;;;;;6277473;22;20090;-85
2023/12/08 11:38:56;;;;;;;6.47;5.00;;;5.40;99.90;;;;;;6273558;22;20038;-85
2023/12/08 11:41:46;;;;;;;7.60;5.55;;;5.30;99.90;;;;;;6275581;22;20038;-85
2023/12/08 11:44:34;;;;;;;9.07;5.30;;;5.30;99.90;;;;;;6275345;22;20089;-85
2023/12/08 11:47:26;;;;;;;8.90;6.05;;;5.20;99.90;;;;;;6273601;22;20027;-85
2023/12/08 11:50:16;;;;;;;7.25;5.65;;;5.20;99.90;;;;;;6274372;22;20035;-85
2023/12/08 11:53:04;;;;;;;7.05;5.35;;;5.20;99.90;;;;;;6278062;22;20034;-84
2023/12/08 11:55:51;;;;;;;6.38;4.88;;;5.30;99.90;;;;;;6274194;22;20341;-84
2023/12/08 11:58:41;;;;;;;6.70;5.00;;;5.20;99.90;;;;;;6274261;22;20036;-85
2023/12/08 12:01:29;;;;;;;6.68;5.07;;;5.20;99.90;;;;;;6274214;22;20027;-83
2023/12/08 12:04:19;;;;;;;6.53;4.70;;;5.20;99.90;;;;;;6279200;22;20112;-84
2023/12/08 12:07:08;;;;;;;5.85;4.78;;;5.30;99.90;;;;;;6274050;22;20031;-83
2023/12/08 12:09:56;;;;;;;5.78;4.72;;;5.30;99.90;;;;;;6277982;22;20031;-79
2023/12/08 12:12:52;;;;;;;5.57;4.65;;;5.30;99.90;;;;;;6280755;22;20028;-85
2023/12/08 12:15:41;;;;;;;8.25;4.32;;;5.40;99.90;;;;;;6275880;22;20174;-84
2023/12/08 12:18:30;;;;;;;11.23;4.90;;;5.40;99.90;;;;;;6274987;22;20028;-85
2023/12/08 12:21:19;;;;;;;7.25;4.55;;;5.50;99.90;;;;;;6273693;22;20023;-82
2023/12/08 12:24:06;;;;;;;6.88;4.20;;;5.50;99.90;;;;;;6276362;22;20321;-84
2023/12/08 12:26:54;;;;;;;5.35;4.25;;;5.50;99.90;;;;;;6276403;22;20020;-85
2023/12/08 12:29:44;;;;;;;6.28;4.30;;;5.60;99.90;;;;;;6273586;22;20101;-84
2023/12/08 12:32:32;;;;;;;5.18;3.72;;;5.60;99.90;;;;;;6274785;22;20023;-83
2023/12/08 12:35:23;;;;;;;6.20;3.50;;;5.50;99.90;;;;;;6273077;22;20382;-85
2023/12/08 12:38:13;;;;;;;5.38;3.90;;;5.60;99.90;;;;;;6274454;22;20430;-83
2023/12/08 12:41:23;;;;;;;5.63;3.90;;;5.60;99.90;;;;;;6272964;22;20082;-83
2023/12/08 12:44:10;;;;;;;4.10;3.70;;;5.60;99.90;;;;;;6272100;22;20074;-84
2023/12/08 12:46:58;;;;;;;6.18;4.50;;;5.60;99.90;;;;;;6274646;22;20020;-83
2023/12/08 12:50:00;;;;;;;5.50;4.30;;;5.60;99.90;;;;;;6271723;22;20020;-84
2023/12/08 12:52:47;;;;;;;4.72;3.88;;;5.60;99.90;;;;;;6274592;22;20034;-82
2023/12/08 12:55:36;;;;;;;6.10;4.88;;;5.60;99.90;;;;;;6275786;22;20056;-83
2023/12/08 12:58:24;;;;;;;6.70;4.53;;;5.60;99.90;;;;;;6272747;22;20302;-84
2023/12/08 13:01:14;;;;;;;6.13;4.15;;;5.60;99.90;;;;;;6275673;22;20354;-80
2023/12/08 13:04:04;;;;;;;5.72;4.20;;;5.70;99.90;;;;;;6278489;22;20019;-80
2023/12/08 13:06:51;;;;;;;6.00;3.67;;;5.70;99.90;;;;;;6274395;22;20024;-86
2023/12/08 13:09:40;;;;;;;5.03;3.70;;;5.70;99.90;;;;;;6253207;22;20051;-83
2023/12/08 13:12:30;;;;;;;6.78;4.47;;;5.70;99.90;;;;;;6277458;22;20103;-84
2023/12/08 13:15:20;;;;;;;7.95;4.30;;;5.70;99.90;;;;;;6275574;22;20027;-85
2023/12/08 13:18:08;;;;;;;4.85;4.10;;;5.60;99.90;;;;;;6272780;22;20020;-84
2023/12/08 13:20:56;;;;;;;5.35;4.40;;;5.60;99.90;;;;;;6273939;22;20449;-84
2023/12/08 13:23:45;;;;;;;6.07;4.65;;;5.60;99.90;;;;;;6274188;22;20433;-84
2023/12/08 13:26:33;;;;;;;8.07;4.50;;;5.70;99.90;;;;;;6279047;22;20426;-82
2023/12/08 13:29:25;;;;;;;8.55;5.57;;;5.60;99.90;;;;;;6279065;22;20037;-83
2023/12/08 13:32:12;;;;;;;7.35;5.32;;;5.70;99.90;;;;;;6276387;22;20019;-85
2023/12/08 13:35:02;;;;;;;5.82;4.40;;;5.70;99.90;;;;;;6276035;22;20028;-85
2023/12/08 13:37:50;;;;;;;6.15;4.45;;;5.60;99.90;;;;;;6276737;22;20050;-85
2023/12/08 13:40:40;;;;;;;7.65;5.13;;;5.60;99.90;;;;;;6275600;22;20102;-82
2023/12/08 13:43:28;;;;;;;12.90;4.82;;;5.60;99.90;;;;;;6279624;22;20047;-84
2023/12/08 13:46:16;;;;;;;6.93;4.97;;;5.60;99.90;;;;;;6278745;22;20019;-84
2023/12/08 13:49:03;;;;;;;10.35;4.70;;;5.50;99.90;;;;;;6276884;22;20023;-84
2023/12/08 13:51:53;;;;;;;8.50;5.50;;;5.50;99.90;;;;;;6280103;22;20034;-80
2023/12/08 13:54:40;;;;;;;6.00;4.78;;;5.50;99.90;;;;;;6279581;22;20111;-84
2023/12/08 13:57:28;;;;;;;7.65;5.20;;;5.60;99.90;;;;;;6278141;22;20430;-86
2023/12/08 14:00:16;;;;;;;8.65;5.35;;;5.50;99.90;;;;;;6274982;22;20317;-84
2023/12/08 14:03:07;;;;;;;6.03;4.93;;;5.50;99.90;;;;;;6279606;22;20437;-85
2023/12/08 14:05:54;;;;;;;6.75;5.40;;;5.50;99.90;;;;;;6279322;22;20024;-84
2023/12/08 14:08:42;;;;;;;10.65;6.85;;;5.50;99.90;;;;;;6277974;22;20020;-85
2023/12/08 14:11:29;;;;;;;8.05;5.60;;;5.50;99.90;;;;;;6274331;22;20095;-84
2023/12/08 14:14:16;;;;;;;7.35;5.70;;;5.50;99.90;;;;;;6278496;22;20025;-85
2023/12/08 14:17:06;;;;;;;10.80;5.70;;;5.50;99.90;;;;;;6275849;22;20031;-85
2023/12/08 14:19:54;;;;;;;8.18;5.60;;;5.50;99.90;;;;;;6278580;22;20027;-85
2023/12/08 14:22:41;;;;;;;8.15;5.60;;;5.50;99.90;;;;;;6274209;22;20035;-85
2023/12/08 14:25:28;;;;;;;8.70;5.55;;;5.50;99.90;;;;;;6277809;22;20032;-85
2023/12/08 14:28:16;;;;;;;8.52;5.80;;;5.60;99.90;;;;;;6276762;22;20027;-84
2023/12/08 14:31:04;;;;;;;7.50;5.93;;;5.50;99.90;;;;;;6275061;22;20031;-86
2023/12/08 14:33:51;;;;;;;10.38;6.10;;;5.50;99.90;;;;;;6276956;22;20023;-85
2023/12/08 14:36:41;;;;;;;7.53;6.03;;;5.50;99.90;;;;;;6276152;22;20386;-80
2023/12/08 14:39:29;;;;;;;10.10;6.32;;;5.50;99.90;;;;;;6278884;22;20024;-85